sensor_id;sensor_type;location;lat;lon;timestamp;P1;durP1;ratioP1;P2;durP2;ratioP2
11596;SDS011;5854;48.072;16.286;2023-02-15T00:00:19;14.98;;;13.57;;
11596;SDS011;5854;48.072;16.286;2023-02-15T00:02:47;15.70;;;14.02;;
11596;SDS011;5854;48.072;16.286;2023-02-15T00:05:14;15.43;;;13.88;;
11596;SDS011;5854;48.072;16.286;2023-02-15T00:07:41;15.32;;;13.20;;
11596;SDS011;5854;48.072;16.286;2023-02-15T00:10:08;17.20;;;14.85;;
11596;SDS011;5854;48.072;16.286;2023-02-15T00:12:38;19.75;;;16.85;;
11596;SDS011;5854;48.072;16.286;2023-02-15T00:15:05;17.00;;;14.95;;
11596;SDS011;5854;48.072;16.286;2023-02-15T00:17:33;14.77;;;13.27;;
11596;SDS011;5854;48.072;16.286;2023-02-15T00:20:00;20.70;;;17.08;;
11596;SDS011;5854;48.072;16.286;2023-02-15T00:22:27;29.13;;;21.88;;
11596;SDS011;5854;48.072;16.286;2023-02-15T00:24:54;15.45;;;13.85;;
11596;SDS011;5854;48.072;16.286;2023-02-15T00:27:21;15.70;;;14.02;;
11596;SDS011;5854;48.072;16.286;2023-02-15T00:29:50;15.20;;;13.60;;
11596;SDS011;5854;48.072;16.286;2023-02-15T00:32:17;18.30;;;16.35;;
11596;SDS011;5854;48.072;16.286;2023-02-15T00:34:44;26.60;;;21.25;;
11596;SDS011;5854;48.072;16.286;2023-02-15T00:37:11;25.52;;;19.42;;
11596;SDS011;5854;48.072;16.286;2023-02-15T00:39:38;22.23;;;17.73;;
11596;SDS011;5854;48.072;16.286;2023-02-15T00:42:05;15.23;;;13.70;;
11596;SDS011;5854;48.072;16.286;2023-02-15T00:44:32;17.02;;;15.23;;
11596;SDS011;5854;48.072;16.286;2023-02-15T00:47:01;18.63;;;15.18;;
11596;SDS011;5854;48.072;16.286;2023-02-15T00:49:28;18.05;;;16.20;;
11596;SDS011;5854;48.072;16.286;2023-02-15T00:51:55;19.33;;;16.45;;
11596;SDS011;5854;48.072;16.286;2023-02-15T00:54:22;16.83;;;14.65;;
11596;SDS011;5854;48.072;16.286;2023-02-15T00:56:49;16.17;;;14.55;;
11596;SDS011;5854;48.072;16.286;2023-02-15T00:59:16;17.80;;;15.90;;
11596;SDS011;5854;48.072;16.286;2023-02-15T01:01:43;16.67;;;14.95;;
11596;SDS011;5854;48.072;16.286;2023-02-15T01:04:11;21.08;;;17.45;;
11596;SDS011;5854;48.072;16.286;2023-02-15T01:06:38;15.73;;;14.07;;
11596;SDS011;5854;48.072;16.286;2023-02-15T01:09:06;17.02;;;15.23;;
11596;SDS011;5854;48.072;16.286;2023-02-15T01:11:33;18.75;;;16.75;;
11596;SDS011;5854;48.072;16.286;2023-02-15T01:14:00;16.45;;;14.63;;
11596;SDS011;5854;48.072;16.286;2023-02-15T01:16:28;18.15;;;15.18;;
11596;SDS011;5854;48.072;16.286;2023-02-15T01:18:55;17.02;;;14.73;;
11596;SDS011;5854;48.072;16.286;2023-02-15T01:21:24;17.95;;;15.43;;
11596;SDS011;5854;48.072;16.286;2023-02-15T01:23:52;17.40;;;15.50;;
11596;SDS011;5854;48.072;16.286;2023-02-15T01:26:19;17.52;;;15.73;;
11596;SDS011;5854;48.072;16.286;2023-02-15T01:28:46;17.42;;;15.45;;
11596;SDS011;5854;48.072;16.286;2023-02-15T01:31:14;18.08;;;15.15;;
11596;SDS011;5854;48.072;16.286;2023-02-15T01:33:43;18.17;;;15.68;;
11596;SDS011;5854;48.072;16.286;2023-02-15T01:36:10;17.45;;;15.43;;
11596;SDS011;5854;48.072;16.286;2023-02-15T01:38:39;15.93;;;13.95;;
11596;SDS011;5854;48.072;16.286;2023-02-15T01:41:06;16.90;;;15.10;;
11596;SDS011;5854;48.072;16.286;2023-02-15T01:43:49;15.88;;;14.23;;
11596;SDS011;5854;48.072;16.286;2023-02-15T01:46:20;15.10;;;13.60;;
11596;SDS011;5854;48.072;16.286;2023-02-15T01:48:54;17.65;;;15.77;;
11596;SDS011;5854;48.072;16.286;2023-02-15T01:51:27;16.70;;;14.82;;
11596;SDS011;5854;48.072;16.286;2023-02-15T01:54:00;16.30;;;14.13;;
11596;SDS011;5854;48.072;16.286;2023-02-15T01:56:33;16.27;;;14.30;;
11596;SDS011;5854;48.072;16.286;2023-02-15T01:59:04;16.30;;;14.60;;
11596;SDS011;5854;48.072;16.286;2023-02-15T02:01:35;19.50;;;16.25;;
11596;SDS011;5854;48.072;16.286;2023-02-15T02:04:05;19.10;;;16.88;;
11596;SDS011;5854;48.072;16.286;2023-02-15T02:06:37;17.98;;;15.63;;
11596;SDS011;5854;48.072;16.286;2023-02-15T02:09:07;17.67;;;15.77;;
11596;SDS011;5854;48.072;16.286;2023-02-15T02:11:35;17.40;;;15.48;;
11596;SDS011;5854;48.072;16.286;2023-02-15T02:14:02;16.60;;;14.30;;
11596;SDS011;5854;48.072;16.286;2023-02-15T02:16:31;15.68;;;14.05;;
11596;SDS011;5854;48.072;16.286;2023-02-15T02:19:12;16.92;;;15.10;;
11596;SDS011;5854;48.072;16.286;2023-02-15T02:22:39;16.33;;;14.68;;
11596;SDS011;5854;48.072;16.286;2023-02-15T02:25:44;16.63;;;14.85;;
11596;SDS011;5854;48.072;16.286;2023-02-15T02:29:00;15.70;;;13.93;;
11596;SDS011;5854;48.072;16.286;2023-02-15T02:35:15;17.20;;;14.95;;
11596;SDS011;5854;48.072;16.286;2023-02-15T02:37:51;16.65;;;14.52;;
11596;SDS011;5854;48.072;16.286;2023-02-15T02:40:30;15.60;;;13.20;;
11596;SDS011;5854;48.072;16.286;2023-02-15T02:43:09;16.00;;;14.23;;
11596;SDS011;5854;48.072;16.286;2023-02-15T02:45:43;16.52;;;14.55;;
11596;SDS011;5854;48.072;16.286;2023-02-15T02:48:19;16.25;;;14.55;;
11596;SDS011;5854;48.072;16.286;2023-02-15T02:50:51;15.88;;;14.20;;
11596;SDS011;5854;48.072;16.286;2023-02-15T02:53:18;15.20;;;13.70;;
11596;SDS011;5854;48.072;16.286;2023-02-15T02:55:46;17.05;;;15.02;;
11596;SDS011;5854;48.072;16.286;2023-02-15T02:58:17;17.05;;;14.75;;
11596;SDS011;5854;48.072;16.286;2023-02-15T03:00:52;16.42;;;14.77;;
11596;SDS011;5854;48.072;16.286;2023-02-15T03:03:24;16.42;;;14.73;;
11596;SDS011;5854;48.072;16.286;2023-02-15T03:05:57;16.42;;;14.73;;
11596;SDS011;5854;48.072;16.286;2023-02-15T03:08:27;15.10;;;13.47;;
11596;SDS011;5854;48.072;16.286;2023-02-15T03:11:02;17.35;;;15.50;;
11596;SDS011;5854;48.072;16.286;2023-02-15T03:13:30;15.52;;;13.93;;
11596;SDS011;5854;48.072;16.286;2023-02-15T03:15:58;14.85;;;13.25;;
11596;SDS011;5854;48.072;16.286;2023-02-15T03:18:47;16.13;;;14.50;;
11596;SDS011;5854;48.072;16.286;2023-02-15T03:21:22;15.50;;;13.88;;
11596;SDS011;5854;48.072;16.286;2023-02-15T03:23:57;17.02;;;15.30;;
11596;SDS011;5854;48.072;16.286;2023-02-15T03:26:30;18.63;;;16.08;;
11596;SDS011;5854;48.072;16.286;2023-02-15T03:29:00;16.58;;;14.85;;
11596;SDS011;5854;48.072;16.286;2023-02-15T03:31:31;16.70;;;14.93;;
11596;SDS011;5854;48.072;16.286;2023-02-15T03:34:04;15.05;;;13.50;;
11596;SDS011;5854;48.072;16.286;2023-02-15T03:36:36;17.70;;;15.68;;
11596;SDS011;5854;48.072;16.286;2023-02-15T03:39:12;16.73;;;14.73;;
11596;SDS011;5854;48.072;16.286;2023-02-15T03:41:48;16.35;;;14.43;;
11596;SDS011;5854;48.072;16.286;2023-02-15T03:44:24;16.35;;;13.90;;
11596;SDS011;5854;48.072;16.286;2023-02-15T03:46:56;14.35;;;12.88;;
11596;SDS011;5854;48.072;16.286;2023-02-15T03:49:34;16.30;;;13.90;;
11596;SDS011;5854;48.072;16.286;2023-02-15T03:52:07;14.60;;;13.10;;
11596;SDS011;5854;48.072;16.286;2023-02-15T03:54:36;17.10;;;15.30;;
11596;SDS011;5854;48.072;16.286;2023-02-15T03:57:13;15.88;;;14.18;;
11596;SDS011;5854;48.072;16.286;2023-02-15T04:00:03;14.93;;;13.35;;
11596;SDS011;5854;48.072;16.286;2023-02-15T04:05:55;16.90;;;14.98;;
11596;SDS011;5854;48.072;16.286;2023-02-15T04:08:22;14.98;;;13.40;;
11596;SDS011;5854;48.072;16.286;2023-02-15T04:11:10;15.35;;;13.73;;
11596;SDS011;5854;48.072;16.286;2023-02-15T04:13:36;16.98;;;15.18;;
11596;SDS011;5854;48.072;16.286;2023-02-15T04:16:03;15.65;;;13.85;;
11596;SDS011;5854;48.072;16.286;2023-02-15T04:18:29;16.02;;;14.32;;
11596;SDS011;5854;48.072;16.286;2023-02-15T04:21:16;16.75;;;14.77;;
11596;SDS011;5854;48.072;16.286;2023-02-15T04:24:02;14.55;;;13.00;;
11596;SDS011;5854;48.072;16.286;2023-02-15T04:26:47;16.38;;;14.60;;
11596;SDS011;5854;48.072;16.286;2023-02-15T04:29:14;15.30;;;13.73;;
11596;SDS011;5854;48.072;16.286;2023-02-15T04:31:41;16.45;;;14.77;;
11596;SDS011;5854;48.072;16.286;2023-02-15T04:34:08;19.70;;;16.23;;
11596;SDS011;5854;48.072;16.286;2023-02-15T04:36:38;15.23;;;13.65;;
11596;SDS011;5854;48.072;16.286;2023-02-15T04:39:05;14.88;;;13.35;;
11596;SDS011;5854;48.072;16.286;2023-02-15T04:41:33;15.15;;;13.23;;
11596;SDS011;5854;48.072;16.286;2023-02-15T04:44:01;15.95;;;14.35;;
11596;SDS011;5854;48.072;16.286;2023-02-15T04:46:29;16.23;;;14.57;;
11596;SDS011;5854;48.072;16.286;2023-02-15T04:48:56;14.60;;;13.20;;
11596;SDS011;5854;48.072;16.286;2023-02-15T04:51:24;16.35;;;13.63;;
11596;SDS011;5854;48.072;16.286;2023-02-15T04:53:52;17.25;;;14.65;;
11596;SDS011;5854;48.072;16.286;2023-02-15T04:56:19;15.57;;;13.27;;
11596;SDS011;5854;48.072;16.286;2023-02-15T04:58:47;16.38;;;14.18;;
11596;SDS011;5854;48.072;16.286;2023-02-15T05:01:15;19.15;;;15.82;;
11596;SDS011;5854;48.072;16.286;2023-02-15T05:03:43;14.68;;;13.18;;
11596;SDS011;5854;48.072;16.286;2023-02-15T05:06:10;14.63;;;13.23;;
11596;SDS011;5854;48.072;16.286;2023-02-15T05:08:37;15.77;;;13.13;;
11596;SDS011;5854;48.072;16.286;2023-02-15T05:11:05;16.65;;;14.93;;
11596;SDS011;5854;48.072;16.286;2023-02-15T05:13:32;15.45;;;13.90;;
11596;SDS011;5854;48.072;16.286;2023-02-15T05:15:59;18.67;;;15.70;;
11596;SDS011;5854;48.072;16.286;2023-02-15T05:18:26;15.73;;;14.02;;
11596;SDS011;5854;48.072;16.286;2023-02-15T05:20:53;14.07;;;12.68;;
11596;SDS011;5854;48.072;16.286;2023-02-15T05:23:21;15.30;;;13.63;;
11596;SDS011;5854;48.072;16.286;2023-02-15T05:25:48;15.35;;;13.75;;
11596;SDS011;5854;48.072;16.286;2023-02-15T05:28:35;14.32;;;12.77;;
11596;SDS011;5854;48.072;16.286;2023-02-15T05:31:05;15.02;;;13.48;;
11596;SDS011;5854;48.072;16.286;2023-02-15T05:33:34;16.17;;;14.45;;
11596;SDS011;5854;48.072;16.286;2023-02-15T05:36:02;15.70;;;14.13;;
11596;SDS011;5854;48.072;16.286;2023-02-15T05:38:30;15.10;;;13.50;;
11596;SDS011;5854;48.072;16.286;2023-02-15T05:40:57;14.07;;;12.57;;
11596;SDS011;5854;48.072;16.286;2023-02-15T05:43:25;14.75;;;13.30;;
11596;SDS011;5854;48.072;16.286;2023-02-15T05:45:54;15.25;;;13.65;;
11596;SDS011;5854;48.072;16.286;2023-02-15T05:48:22;15.73;;;14.02;;
11596;SDS011;5854;48.072;16.286;2023-02-15T05:50:56;13.50;;;12.07;;
11596;SDS011;5854;48.072;16.286;2023-02-15T05:53:34;12.85;;;11.68;;
11596;SDS011;5854;48.072;16.286;2023-02-15T05:56:04;39.60;;;16.38;;
11596;SDS011;5854;48.072;16.286;2023-02-15T05:58:34;36.88;;;27.48;;
11596;SDS011;5854;48.072;16.286;2023-02-15T06:01:08;56.78;;;27.90;;
11596;SDS011;5854;48.072;16.286;2023-02-15T06:03:35;44.40;;;27.40;;
11596;SDS011;5854;48.072;16.286;2023-02-15T06:06:03;38.63;;;26.75;;
11596;SDS011;5854;48.072;16.286;2023-02-15T06:08:31;36.63;;;25.23;;
11596;SDS011;5854;48.072;16.286;2023-02-15T06:10:58;38.33;;;26.40;;
11596;SDS011;5854;48.072;16.286;2023-02-15T06:13:26;35.50;;;25.50;;
11596;SDS011;5854;48.072;16.286;2023-02-15T06:15:55;36.05;;;25.98;;
11596;SDS011;5854;48.072;16.286;2023-02-15T06:18:23;35.47;;;23.75;;
11596;SDS011;5854;48.072;16.286;2023-02-15T06:20:51;39.42;;;24.60;;
11596;SDS011;5854;48.072;16.286;2023-02-15T06:23:40;32.47;;;23.52;;
11596;SDS011;5854;48.072;16.286;2023-02-15T06:26:08;35.42;;;23.83;;
11596;SDS011;5854;48.072;16.286;2023-02-15T06:28:35;40.17;;;27.17;;
11596;SDS011;5854;48.072;16.286;2023-02-15T06:31:03;34.20;;;25.13;;
11596;SDS011;5854;48.072;16.286;2023-02-15T06:33:33;30.73;;;23.38;;
11596;SDS011;5854;48.072;16.286;2023-02-15T06:36:00;33.10;;;22.98;;
11596;SDS011;5854;48.072;16.286;2023-02-15T06:38:28;31.92;;;24.73;;
11596;SDS011;5854;48.072;16.286;2023-02-15T06:40:58;41.45;;;25.83;;
11596;SDS011;5854;48.072;16.286;2023-02-15T06:43:28;39.75;;;23.52;;
11596;SDS011;5854;48.072;16.286;2023-02-15T07:01:23;52.13;;;28.48;;
11596;SDS011;5854;48.072;16.286;2023-02-15T07:03:50;48.95;;;27.55;;
11596;SDS011;5854;48.072;16.286;2023-02-15T11:33:14;53.33;;;28.10;;
11596;SDS011;5854;48.072;16.286;2023-02-15T11:35:47;49.53;;;29.30;;
11596;SDS011;5854;48.072;16.286;2023-02-15T11:38:21;56.00;;;27.35;;
11596;SDS011;5854;48.072;16.286;2023-02-15T11:40:51;56.10;;;31.10;;
11596;SDS011;5854;48.072;16.286;2023-02-15T11:43:26;59.80;;;31.52;;
11596;SDS011;5854;48.072;16.286;2023-02-15T11:46:01;59.15;;;33.05;;
11596;SDS011;5854;48.072;16.286;2023-02-15T11:48:29;54.03;;;28.85;;
11596;SDS011;5854;48.072;16.286;2023-02-15T11:50:57;49.88;;;28.17;;
11596;SDS011;5854;48.072;16.286;2023-02-15T11:53:25;46.75;;;25.45;;
11596;SDS011;5854;48.072;16.286;2023-02-15T11:55:58;50.10;;;27.00;;
11596;SDS011;5854;48.072;16.286;2023-02-15T11:58:29;58.80;;;32.65;;
11596;SDS011;5854;48.072;16.286;2023-02-15T12:01:09;63.72;;;32.20;;
11596;SDS011;5854;48.072;16.286;2023-02-15T12:03:43;73.70;;;36.92;;
11596;SDS011;5854;48.072;16.286;2023-02-15T12:06:16;65.47;;;35.40;;
11596;SDS011;5854;48.072;16.286;2023-02-15T12:08:55;67.93;;;37.25;;
11596;SDS011;5854;48.072;16.286;2023-02-15T12:11:31;78.05;;;38.60;;
11596;SDS011;5854;48.072;16.286;2023-02-15T12:14:03;73.90;;;38.05;;
11596;SDS011;5854;48.072;16.286;2023-02-15T12:16:34;76.22;;;39.72;;
11596;SDS011;5854;48.072;16.286;2023-02-15T12:19:13;59.72;;;33.22;;
11596;SDS011;5854;48.072;16.286;2023-02-15T12:21:56;56.42;;;31.58;;
11596;SDS011;5854;48.072;16.286;2023-02-15T12:24:26;67.68;;;35.58;;
11596;SDS011;5854;48.072;16.286;2023-02-15T12:26:58;69.78;;;36.25;;
11596;SDS011;5854;48.072;16.286;2023-02-15T12:29:29;63.50;;;33.72;;
11596;SDS011;5854;48.072;16.286;2023-02-15T12:32:03;73.15;;;38.72;;
11596;SDS011;5854;48.072;16.286;2023-02-15T12:34:32;79.53;;;40.25;;
11596;SDS011;5854;48.072;16.286;2023-02-15T12:37:07;76.00;;;39.70;;
11596;SDS011;5854;48.072;16.286;2023-02-15T12:39:50;67.57;;;34.53;;
11596;SDS011;5854;48.072;16.286;2023-02-15T12:42:20;54.75;;;30.23;;
11596;SDS011;5854;48.072;16.286;2023-02-15T12:44:56;55.55;;;29.70;;
11596;SDS011;5854;48.072;16.286;2023-02-15T12:47:27;61.03;;;32.22;;
11596;SDS011;5854;48.072;16.286;2023-02-15T12:50:04;51.38;;;29.45;;
11596;SDS011;5854;48.072;16.286;2023-02-15T12:52:41;53.53;;;29.27;;
11596;SDS011;5854;48.072;16.286;2023-02-15T12:55:10;53.60;;;28.88;;
11596;SDS011;5854;48.072;16.286;2023-02-15T12:57:47;55.75;;;29.55;;
11596;SDS011;5854;48.072;16.286;2023-02-15T13:00:25;56.45;;;28.80;;
11596;SDS011;5854;48.072;16.286;2023-02-15T13:02:58;48.20;;;25.88;;
11596;SDS011;5854;48.072;16.286;2023-02-15T13:05:29;51.72;;;29.15;;
11596;SDS011;5854;48.072;16.286;2023-02-15T13:08:01;44.78;;;24.73;;
11596;SDS011;5854;48.072;16.286;2023-02-15T13:10:36;51.35;;;27.38;;
11596;SDS011;5854;48.072;16.286;2023-02-15T13:13:09;48.15;;;26.63;;
11596;SDS011;5854;48.072;16.286;2023-02-15T13:15:39;52.65;;;28.83;;
11596;SDS011;5854;48.072;16.286;2023-02-15T13:18:12;50.17;;;29.55;;
11596;SDS011;5854;48.072;16.286;2023-02-15T13:20:42;48.58;;;26.98;;
11596;SDS011;5854;48.072;16.286;2023-02-15T13:23:15;54.95;;;28.58;;
11596;SDS011;5854;48.072;16.286;2023-02-15T13:28:22;48.15;;;27.10;;
11596;SDS011;5854;48.072;16.286;2023-02-15T13:30:53;48.15;;;26.30;;
11596;SDS011;5854;48.072;16.286;2023-02-15T13:33:24;46.58;;;26.27;;
11596;SDS011;5854;48.072;16.286;2023-02-15T13:36:00;50.20;;;26.10;;
11596;SDS011;5854;48.072;16.286;2023-02-15T13:38:45;44.42;;;26.45;;
11596;SDS011;5854;48.072;16.286;2023-02-15T13:41:21;45.38;;;26.60;;
11596;SDS011;5854;48.072;16.286;2023-02-15T13:43:56;47.72;;;26.67;;
11596;SDS011;5854;48.072;16.286;2023-02-15T13:46:38;45.38;;;26.08;;
11596;SDS011;5854;48.072;16.286;2023-02-15T13:49:21;45.72;;;25.67;;
11596;SDS011;5854;48.072;16.286;2023-02-15T13:52:16;45.05;;;26.38;;
11596;SDS011;5854;48.072;16.286;2023-02-15T13:58:08;51.38;;;24.92;;
11596;SDS011;5854;48.072;16.286;2023-02-15T14:01:15;41.30;;;25.33;;
11596;SDS011;5854;48.072;16.286;2023-02-15T14:07:22;45.10;;;27.83;;
11596;SDS011;5854;48.072;16.286;2023-02-15T14:10:23;45.25;;;27.10;;
11596;SDS011;5854;48.072;16.286;2023-02-15T14:13:29;44.08;;;27.77;;
11596;SDS011;5854;48.072;16.286;2023-02-15T14:16:24;47.38;;;26.45;;
11596;SDS011;5854;48.072;16.286;2023-02-15T14:19:09;47.60;;;26.60;;
11596;SDS011;5854;48.072;16.286;2023-02-15T14:21:46;42.30;;;24.63;;
11596;SDS011;5854;48.072;16.286;2023-02-15T14:24:23;42.45;;;24.50;;
11596;SDS011;5854;48.072;16.286;2023-02-15T14:26:59;51.17;;;28.00;;
11596;SDS011;5854;48.072;16.286;2023-02-15T14:29:42;43.25;;;25.98;;
11596;SDS011;5854;48.072;16.286;2023-02-15T14:32:17;46.42;;;26.33;;
11596;SDS011;5854;48.072;16.286;2023-02-15T14:34:52;49.50;;;28.40;;
11596;SDS011;5854;48.072;16.286;2023-02-15T14:37:28;47.13;;;29.67;;
11596;SDS011;5854;48.072;16.286;2023-02-15T14:40:08;56.35;;;30.70;;
11596;SDS011;5854;48.072;16.286;2023-02-15T14:43:05;51.90;;;28.10;;
11596;SDS011;5854;48.072;16.286;2023-02-15T14:45:39;55.70;;;30.98;;
11596;SDS011;5854;48.072;16.286;2023-02-15T14:50:50;44.78;;;26.40;;
11596;SDS011;5854;48.072;16.286;2023-02-15T14:56:13;55.95;;;30.70;;
11596;SDS011;5854;48.072;16.286;2023-02-15T14:58:54;56.22;;;31.55;;
11596;SDS011;5854;48.072;16.286;2023-02-15T15:01:38;56.83;;;33.85;;
11596;SDS011;5854;48.072;16.286;2023-02-15T15:04:07;60.40;;;33.50;;
11596;SDS011;5854;48.072;16.286;2023-02-15T15:06:38;60.78;;;33.58;;
11596;SDS011;5854;48.072;16.286;2023-02-15T15:09:13;56.33;;;33.00;;
11596;SDS011;5854;48.072;16.286;2023-02-15T15:11:48;57.90;;;33.58;;
11596;SDS011;5854;48.072;16.286;2023-02-15T15:17:08;59.10;;;35.05;;
11596;SDS011;5854;48.072;16.286;2023-02-15T15:22:38;60.63;;;34.50;;
11596;SDS011;5854;48.072;16.286;2023-02-15T15:25:11;58.03;;;34.30;;
11596;SDS011;5854;48.072;16.286;2023-02-15T15:28:07;54.63;;;32.42;;
11596;SDS011;5854;48.072;16.286;2023-02-15T15:36:48;55.92;;;31.65;;
11596;SDS011;5854;48.072;16.286;2023-02-15T15:46:27;60.33;;;34.25;;
11596;SDS011;5854;48.072;16.286;2023-02-15T15:49:15;58.58;;;33.78;;
11596;SDS011;5854;48.072;16.286;2023-02-15T15:51:44;57.30;;;32.17;;
11596;SDS011;5854;48.072;16.286;2023-02-15T15:54:14;51.55;;;30.80;;
11596;SDS011;5854;48.072;16.286;2023-02-15T15:56:46;52.80;;;30.40;;
11596;SDS011;5854;48.072;16.286;2023-02-15T16:04:22;55.80;;;31.45;;
11596;SDS011;5854;48.072;16.286;2023-02-15T16:06:51;56.22;;;31.38;;
11596;SDS011;5854;48.072;16.286;2023-02-15T16:09:22;56.28;;;32.55;;
11596;SDS011;5854;48.072;16.286;2023-02-15T16:11:52;58.65;;;31.42;;
11596;SDS011;5854;48.072;16.286;2023-02-15T16:14:26;62.05;;;32.97;;
11596;SDS011;5854;48.072;16.286;2023-02-15T16:16:57;58.20;;;31.08;;
11596;SDS011;5854;48.072;16.286;2023-02-15T16:19:29;64.28;;;33.53;;
11596;SDS011;5854;48.072;16.286;2023-02-15T16:27:38;67.63;;;35.70;;
11596;SDS011;5854;48.072;16.286;2023-02-15T16:30:16;62.45;;;33.63;;
11596;SDS011;5854;48.072;16.286;2023-02-15T16:32:47;61.40;;;34.63;;
11596;SDS011;5854;48.072;16.286;2023-02-15T16:35:19;66.03;;;34.38;;
11596;SDS011;5854;48.072;16.286;2023-02-15T16:37:47;70.03;;;34.88;;
11596;SDS011;5854;48.072;16.286;2023-02-15T16:40:25;63.88;;;34.05;;
11596;SDS011;5854;48.072;16.286;2023-02-15T16:43:10;64.90;;;33.85;;
11596;SDS011;5854;48.072;16.286;2023-02-15T16:45:43;60.00;;;31.80;;
11596;SDS011;5854;48.072;16.286;2023-02-15T16:48:12;62.35;;;32.83;;
11596;SDS011;5854;48.072;16.286;2023-02-15T16:50:47;56.50;;;30.63;;
11596;SDS011;5854;48.072;16.286;2023-02-15T16:53:18;55.17;;;30.25;;
11596;SDS011;5854;48.072;16.286;2023-02-15T16:55:50;54.05;;;29.05;;
11596;SDS011;5854;48.072;16.286;2023-02-15T16:58:23;54.58;;;29.17;;
11596;SDS011;5854;48.072;16.286;2023-02-15T17:00:57;50.45;;;28.52;;
11596;SDS011;5854;48.072;16.286;2023-02-15T17:03:26;48.33;;;27.33;;
11596;SDS011;5854;48.072;16.286;2023-02-15T17:05:54;51.47;;;30.60;;
11596;SDS011;5854;48.072;16.286;2023-02-15T17:08:24;47.45;;;27.88;;
11596;SDS011;5854;48.072;16.286;2023-02-15T17:11:04;52.95;;;30.30;;
11596;SDS011;5854;48.072;16.286;2023-02-15T17:16:54;48.30;;;28.90;;
11596;SDS011;5854;48.072;16.286;2023-02-15T17:19:28;51.85;;;28.25;;
11596;SDS011;5854;48.072;16.286;2023-02-15T17:22:01;52.80;;;29.58;;
11596;SDS011;5854;48.072;16.286;2023-02-15T17:27:00;47.90;;;28.35;;
11596;SDS011;5854;48.072;16.286;2023-02-15T17:32:10;56.25;;;29.90;;
11596;SDS011;5854;48.072;16.286;2023-02-15T17:34:46;58.47;;;30.80;;
11596;SDS011;5854;48.072;16.286;2023-02-15T17:37:26;51.88;;;29.60;;
11596;SDS011;5854;48.072;16.286;2023-02-15T17:39:57;55.92;;;29.00;;
11596;SDS011;5854;48.072;16.286;2023-02-15T17:42:26;56.22;;;30.10;;
11596;SDS011;5854;48.072;16.286;2023-02-15T17:44:54;61.50;;;34.13;;
11596;SDS011;5854;48.072;16.286;2023-02-15T17:47:23;66.45;;;35.72;;
11596;SDS011;5854;48.072;16.286;2023-02-15T17:49:51;52.75;;;29.98;;
11596;SDS011;5854;48.072;16.286;2023-02-15T17:52:19;56.38;;;29.60;;
11596;SDS011;5854;48.072;16.286;2023-02-15T17:54:46;49.22;;;28.58;;
11596;SDS011;5854;48.072;16.286;2023-02-15T17:57:31;53.70;;;28.35;;
11596;SDS011;5854;48.072;16.286;2023-02-15T17:59:58;48.10;;;26.92;;
11596;SDS011;5854;48.072;16.286;2023-02-15T18:02:44;47.63;;;27.33;;
11596;SDS011;5854;48.072;16.286;2023-02-15T18:05:30;49.33;;;28.20;;
11596;SDS011;5854;48.072;16.286;2023-02-15T18:08:15;54.05;;;28.40;;
11596;SDS011;5854;48.072;16.286;2023-02-15T18:11:01;49.33;;;27.25;;
11596;SDS011;5854;48.072;16.286;2023-02-15T18:13:46;47.75;;;27.15;;
11596;SDS011;5854;48.072;16.286;2023-02-15T18:16:14;51.78;;;27.55;;
11596;SDS011;5854;48.072;16.286;2023-02-15T18:18:48;52.10;;;28.70;;
11596;SDS011;5854;48.072;16.286;2023-02-15T18:21:15;53.67;;;28.05;;
11596;SDS011;5854;48.072;16.286;2023-02-15T18:23:42;46.92;;;28.00;;
11596;SDS011;5854;48.072;16.286;2023-02-15T18:26:10;51.20;;;27.35;;
11596;SDS011;5854;48.072;16.286;2023-02-15T18:28:44;44.35;;;24.95;;
11596;SDS011;5854;48.072;16.286;2023-02-15T18:31:12;48.88;;;26.83;;
11596;SDS011;5854;48.072;16.286;2023-02-15T18:33:41;49.53;;;28.17;;
11596;SDS011;5854;48.072;16.286;2023-02-15T18:38:43;59.53;;;29.67;;
11596;SDS011;5854;48.072;16.286;2023-02-15T18:41:14;52.88;;;28.98;;
11596;SDS011;5854;48.072;16.286;2023-02-15T18:43:44;61.00;;;29.88;;
11596;SDS011;5854;48.072;16.286;2023-02-15T18:46:12;56.47;;;29.52;;
11596;SDS011;5854;48.072;16.286;2023-02-15T18:48:40;50.10;;;28.15;;
11596;SDS011;5854;48.072;16.286;2023-02-15T18:51:12;54.28;;;28.58;;
11596;SDS011;5854;48.072;16.286;2023-02-15T18:53:46;52.85;;;29.92;;
11596;SDS011;5854;48.072;16.286;2023-02-15T18:56:16;53.40;;;30.05;;
11596;SDS011;5854;48.072;16.286;2023-02-15T18:58:45;53.17;;;28.65;;
11596;SDS011;5854;48.072;16.286;2023-02-15T19:01:21;52.20;;;29.60;;
11596;SDS011;5854;48.072;16.286;2023-02-15T19:03:48;52.45;;;29.23;;
11596;SDS011;5854;48.072;16.286;2023-02-15T19:06:17;50.65;;;27.40;;
11596;SDS011;5854;48.072;16.286;2023-02-15T19:08:49;54.05;;;29.63;;
11596;SDS011;5854;48.072;16.286;2023-02-15T19:11:18;51.95;;;29.23;;
11596;SDS011;5854;48.072;16.286;2023-02-15T19:13:49;57.20;;;29.00;;
11596;SDS011;5854;48.072;16.286;2023-02-15T19:16:25;51.47;;;29.42;;
11596;SDS011;5854;48.072;16.286;2023-02-15T19:18:55;60.70;;;29.77;;
11596;SDS011;5854;48.072;16.286;2023-02-15T19:21:24;51.13;;;27.52;;
11596;SDS011;5854;48.072;16.286;2023-02-15T19:23:58;55.92;;;29.42;;
11596;SDS011;5854;48.072;16.286;2023-02-15T19:26:29;54.70;;;30.83;;
11596;SDS011;5854;48.072;16.286;2023-02-15T19:28:59;60.60;;;30.13;;
11596;SDS011;5854;48.072;16.286;2023-02-15T19:31:27;62.88;;;32.85;;
11596;SDS011;5854;48.072;16.286;2023-02-15T19:33:54;56.58;;;32.17;;
11596;SDS011;5854;48.072;16.286;2023-02-15T19:36:21;54.20;;;30.92;;
11596;SDS011;5854;48.072;16.286;2023-02-15T19:38:50;55.65;;;33.08;;
11596;SDS011;5854;48.072;16.286;2023-02-15T19:41:21;59.00;;;31.48;;
11596;SDS011;5854;48.072;16.286;2023-02-15T19:43:54;55.92;;;32.67;;
11596;SDS011;5854;48.072;16.286;2023-02-15T19:46:22;57.63;;;32.22;;
11596;SDS011;5854;48.072;16.286;2023-02-15T19:48:55;53.95;;;29.95;;
11596;SDS011;5854;48.072;16.286;2023-02-15T19:51:25;58.90;;;30.23;;
11596;SDS011;5854;48.072;16.286;2023-02-15T19:53:54;55.53;;;30.75;;
11596;SDS011;5854;48.072;16.286;2023-02-15T19:56:22;65.93;;;32.55;;
11596;SDS011;5854;48.072;16.286;2023-02-15T19:58:51;54.47;;;29.17;;
11596;SDS011;5854;48.072;16.286;2023-02-15T20:01:21;51.72;;;30.27;;
11596;SDS011;5854;48.072;16.286;2023-02-15T20:03:49;58.88;;;30.35;;
11596;SDS011;5854;48.072;16.286;2023-02-15T20:06:17;64.63;;;32.38;;
11596;SDS011;5854;48.072;16.286;2023-02-15T20:08:45;62.13;;;31.63;;
11596;SDS011;5854;48.072;16.286;2023-02-15T20:11:13;57.50;;;32.33;;
11596;SDS011;5854;48.072;16.286;2023-02-15T20:13:40;61.00;;;33.50;;
11596;SDS011;5854;48.072;16.286;2023-02-15T20:16:07;56.75;;;32.63;;
11596;SDS011;5854;48.072;16.286;2023-02-15T20:18:35;60.75;;;32.10;;
11596;SDS011;5854;48.072;16.286;2023-02-15T20:21:02;50.53;;;29.58;;
11596;SDS011;5854;48.072;16.286;2023-02-15T20:23:31;59.85;;;34.42;;
11596;SDS011;5854;48.072;16.286;2023-02-15T20:26:01;60.22;;;33.65;;
11596;SDS011;5854;48.072;16.286;2023-02-15T20:28:42;67.57;;;35.63;;
11596;SDS011;5854;48.072;16.286;2023-02-15T20:31:12;62.90;;;32.70;;
11596;SDS011;5854;48.072;16.286;2023-02-15T20:33:40;68.28;;;33.83;;
11596;SDS011;5854;48.072;16.286;2023-02-15T20:36:09;60.47;;;35.08;;